Time;durP1;ratioP1;P1;durP2;ratioP2;P2;SDS_P1;SDS_P2;PMS_P1;PMS_P2;Temp;Humidity;BMP_temperature;BMP_pressure;BME280_temperature;BME280_humidity;BME280_pressure;Samples;Min_cycle;Max_cycle;Signal;HPM_P1;HPM_P2
2022/07/16 00:04:39;;;;;;;6.85;2.47;;;29.10;61.80;;;;;;10976219;32;20394;-71
2022/07/16 00:10:41;;;;;;;3.97;2.37;;;29.10;61.40;;;;;;10979662;32;20309;-71
2022/07/16 00:16:43;;;;;;;2.87;1.83;;;29.10;61.20;;;;;;10979792;32;20387;-70
2022/07/16 00:22:45;;;;;;;3.30;1.83;;;29.10;61.90;;;;;;10976003;32;20319;-71
2022/07/16 00:28:48;;;;;;;3.72;2.28;;;29.10;61.80;;;;;;10979458;32;20062;-70
2022/07/16 00:34:50;;;;;;;3.87;1.83;;;29.10;61.60;;;;;;10979400;32;20422;-71
2022/07/16 00:40:53;;;;;;;4.20;1.75;;;29.10;61.40;;;;;;10975111;32;20023;-71
2022/07/16 00:46:55;;;;;;;2.47;2.12;;;29.10;61.30;;;;;;10979144;32;20042;-71
2022/07/16 00:52:59;;;;;;;3.08;2.12;;;29.00;61.60;;;;;;10979134;32;20026;-71
2022/07/16 00:59:02;;;;;;;4.45;1.90;;;29.00;61.40;;;;;;10979030;32;20019;-71
2022/07/16 01:05:05;;;;;;;2.33;1.75;;;29.00;61.40;;;;;;10978856;32;20034;-71
2022/07/16 01:11:10;;;;;;;3.92;1.83;;;29.00;61.30;;;;;;10978696;32;20039;-72
2022/07/16 01:17:12;;;;;;;2.78;1.90;;;29.00;61.60;;;;;;10984020;32;20386;-71
2022/07/16 01:23:25;;;;;;;3.83;2.55;;;29.10;61.60;;;;;;10985679;32;20031;-71
2022/07/16 01:29:27;;;;;;;2.50;1.83;;;29.00;61.50;;;;;;10985757;32;20022;-71
2022/07/16 01:35:29;;;;;;;3.05;2.20;;;29.00;61.90;;;;;;10985344;32;20411;-71
2022/07/16 01:41:31;;;;;;;3.25;2.53;;;28.90;61.90;;;;;;10985181;32;20011;-71
2022/07/16 01:47:33;;;;;;;4.03;2.33;;;28.80;62.30;;;;;;10981148;32;20053;-72
2022/07/16 01:53:35;;;;;;;4.00;2.67;;;28.80;62.30;;;;;;10984532;32;20014;-72
2022/07/16 01:59:39;;;;;;;7.85;2.70;;;28.70;62.90;;;;;;10984387;32;20062;-71
2022/07/16 02:05:42;;;;;;;3.58;2.30;;;28.60;62.60;;;;;;10984201;32;20026;-71
2022/07/16 02:11:44;;;;;;;4.22;2.40;;;28.40;62.40;;;;;;10983924;32;20115;-71
2022/07/16 02:17:46;;;;;;;4.87;3.12;;;28.40;62.30;;;;;;10983852;32;20339;-72
2022/07/16 02:23:48;;;;;;;4.10;2.20;;;28.40;62.80;;;;;;10970212;32;20034;-71
2022/07/16 02:29:50;;;;;;;6.72;3.03;;;28.30;62.90;;;;;;10983179;32;20049;-71
2022/07/16 02:35:52;;;;;;;10.70;3.20;;;28.30;62.70;;;;;;10983239;32;20022;-71
2022/07/16 02:41:54;;;;;;;4.90;2.50;;;28.20;62.80;;;;;;10982942;32;20045;-71
2022/07/16 02:47:56;;;;;;;2.90;2.28;;;28.20;63.10;;;;;;10982742;32;20305;-71
2022/07/16 02:53:58;;;;;;;2.53;2.33;;;28.10;63.20;;;;;;10982635;32;20416;-71
2022/07/16 03:00:01;;;;;;;3.37;2.55;;;28.10;63.70;;;;;;10982194;32;20057;-71
2022/07/16 03:06:03;;;;;;;3.45;2.05;;;28.10;63.80;;;;;;10981922;32;20077;-71
2022/07/16 03:12:05;;;;;;;2.30;1.73;;;28.10;63.70;;;;;;10981752;32;20035;-71
2022/07/16 03:18:07;;;;;;;3.05;2.33;;;28.10;63.90;;;;;;10981659;32;20049;-71
2022/07/16 03:24:09;;;;;;;3.05;2.10;;;28.10;64.30;;;;;;10981299;32;20031;-72
2022/07/16 03:30:13;;;;;;;4.25;2.55;;;28.10;64.10;;;;;;10981294;32;20026;-71
2022/07/16 03:36:32;;;;;;;2.85;1.80;;;28.10;64.30;;;;;;10980659;32;20041;-72
2022/07/16 03:42:34;;;;;;;2.55;2.00;;;28.10;64.40;;;;;;10980773;32;20018;-71
2022/07/16 03:48:36;;;;;;;4.35;2.35;;;28.00;64.60;;;;;;10980542;32;20022;-71
2022/07/16 03:54:38;;;;;;;3.33;2.20;;;28.00;64.50;;;;;;10980474;32;20076;-72
2022/07/16 04:00:40;;;;;;;3.83;1.90;;;28.00;64.60;;;;;;10980110;32;20034;-72
2022/07/16 04:06:42;;;;;;;4.50;1.85;;;28.00;64.50;;;;;;10980025;32;20041;-72
2022/07/16 04:12:44;;;;;;;1.95;1.75;;;28.00;64.90;;;;;;10979909;32;20019;-71
2022/07/16 04:18:46;;;;;;;2.75;2.17;;;28.00;65.00;;;;;;10979569;32;20335;-71
2022/07/16 04:24:49;;;;;;;3.60;1.98;;;28.00;65.30;;;;;;10979497;32;20058;-72
2022/07/16 04:30:51;;;;;;;3.35;2.08;;;28.00;65.20;;;;;;10886208;26;20035;-71
2022/07/16 04:37:24;;;;;;;5.05;2.35;;;28.10;65.00;;;;;;10861422;32;20050;-71
2022/07/16 04:43:27;;;;;;;2.70;1.73;;;28.10;64.60;;;;;;10861358;32;20351;-72
2022/07/16 04:49:29;;;;;;;3.33;2.35;;;28.20;64.60;;;;;;10862831;32;20097;-72
2022/07/16 04:55:31;;;;;;;2.45;1.90;;;28.10;64.50;;;;;;10867619;32;20057;-71
2022/07/16 05:01:33;;;;;;;2.85;1.33;;;28.10;64.40;;;;;;10867570;32;20046;-72
2022/07/16 05:07:36;;;;;;;2.95;1.90;;;28.10;64.70;;;;;;10867210;32;20219;-71
2022/07/16 05:13:38;;;;;;;8.93;2.47;;;28.00;64.40;;;;;;10867009;32;20051;-72
2022/07/16 05:19:40;;;;;;;2.67;1.58;;;27.90;64.50;;;;;;10866985;32;20042;-71
2022/07/16 05:25:42;;;;;;;6.10;2.50;;;27.90;64.60;;;;;;10866720;32;20051;-72
2022/07/16 05:31:44;;;;;;;3.20;1.75;;;27.90;64.50;;;;;;10866453;32;20023;-71
2022/07/16 05:37:46;;;;;;;3.22;2.00;;;27.90;64.80;;;;;;10866336;32;20028;-71
2022/07/16 05:43:48;;;;;;;2.10;1.90;;;27.90;64.80;;;;;;10866345;32;20418;-71
2022/07/16 05:49:50;;;;;;;8.57;2.53;;;28.00;64.40;;;;;;10866146;32;20327;-71
2022/07/16 05:55:52;;;;;;;2.83;1.90;;;27.90;64.40;;;;;;10865972;32;20007;-71
2022/07/16 06:01:54;;;;;;;3.78;1.95;;;28.00;64.40;;;;;;10865384;32;20050;-72
2022/07/16 06:07:56;;;;;;;4.50;2.22;;;28.30;64.00;;;;;;10865500;32;20414;-72
2022/07/16 06:13:59;;;;;;;2.10;1.67;;;28.40;62.90;;;;;;10865348;32;20066;-72
2022/07/16 06:20:01;;;;;;;1.55;1.20;;;28.60;62.70;;;;;;10865115;32;20023;-72
2022/07/16 06:26:03;;;;;;;2.80;1.77;;;28.80;62.60;;;;;;10864927;32;20020;-72
2022/07/16 06:32:06;;;;;;;2.85;1.83;;;28.80;61.70;;;;;;10864742;32;20057;-71
2022/07/16 06:38:08;;;;;;;3.03;1.90;;;28.90;61.00;;;;;;10864885;32;20054;-72
2022/07/16 06:44:10;;;;;;;2.85;1.92;;;29.00;61.10;;;;;;10861691;32;20067;-72
2022/07/16 06:50:13;;;;;;;3.55;1.92;;;29.10;60.70;;;;;;10835327;32;20036;-72
2022/07/16 06:56:15;;;;;;;2.58;1.67;;;29.20;60.70;;;;;;10858888;32;20078;-73
2022/07/16 07:02:16;;;;;;;4.62;2.28;;;29.40;60.40;;;;;;10864118;32;20019;-72
2022/07/16 07:08:18;;;;;;;4.00;1.65;;;29.50;59.10;;;;;;10863497;32;20024;-71
2022/07/16 07:14:20;;;;;;;2.35;1.48;;;29.50;58.70;;;;;;10862918;32;20293;-72
2022/07/16 07:21:10;;;;;;;3.00;1.45;;;29.60;57.50;;;;;;10863656;32;20023;-70
2022/07/16 07:27:13;;;;;;;1.98;1.50;;;29.70;57.60;;;;;;10860690;32;20024;-71
2022/07/16 07:33:21;;;;;;;4.57;1.70;;;29.80;58.00;;;;;;10863113;32;20054;-71
2022/07/16 07:39:23;;;;;;;3.62;2.17;;;29.80;57.00;;;;;;10859667;32;20031;-69
2022/07/16 07:45:26;;;;;;;3.17;2.20;;;29.90;57.10;;;;;;10858719;32;20031;-69
2022/07/16 07:51:29;;;;;;;2.60;1.30;;;29.90;56.80;;;;;;10858296;32;20055;-71
2022/07/16 07:57:31;;;;;;;2.87;1.92;;;30.10;57.00;;;;;;10847368;32;20097;-70
2022/07/16 08:03:35;;;;;;;3.28;1.70;;;30.20;56.20;;;;;;10861556;32;20028;-70
2022/07/16 08:09:39;;;;;;;1.95;1.48;;;30.30;56.10;;;;;;10858320;32;20027;-69
2022/07/16 08:15:42;;;;;;;3.83;1.80;;;30.40;55.70;;;;;;10858614;32;20019;-69
2022/07/16 08:21:45;;;;;;;3.37;1.83;;;30.60;55.30;;;;;;10844970;32;20020;-69
2022/07/16 08:27:47;;;;;;;8.07;3.00;;;30.70;55.20;;;;;;10858006;32;20020;-68
2022/07/16 08:33:49;;;;;;;2.72;1.60;;;30.80;54.00;;;;;;10856841;32;20055;-70
2022/07/16 08:39:51;;;;;;;2.47;1.42;;;30.90;53.90;;;;;;10857796;32;20019;-68
2022/07/16 08:45:54;;;;;;;1.83;1.65;;;31.00;53.60;;;;;;10857211;32;20351;-69
2022/07/16 08:52:00;;;;;;;1.92;1.40;;;31.10;53.60;;;;;;10858726;32;20020;-70
2022/07/16 08:58:05;;;;;;;2.20;1.42;;;31.30;53.80;;;;;;10857998;32;20024;-68
2022/07/16 09:04:07;;;;;;;3.87;1.75;;;31.40;53.60;;;;;;10856494;32;20467;-71
2022/07/16 09:10:10;;;;;;;1.80;1.23;;;31.40;53.10;;;;;;10825502;32;20035;-69
2022/07/16 09:16:34;;;;;;;3.70;2.00;;;31.50;52.60;;;;;;10819382;33;20028;-68
2022/07/16 09:22:37;;;;;;;3.65;1.42;;;31.60;52.40;;;;;;10829264;32;20023;-70
2022/07/16 09:28:43;;;;;;;3.28;1.75;;;31.80;52.10;;;;;;10822331;32;20047;-69
2022/07/16 09:34:45;;;;;;;2.50;1.40;;;31.90;51.60;;;;;;10830917;32;20050;-70
2022/07/16 09:40:49;;;;;;;3.00;2.10;;;32.00;51.90;;;;;;10866145;32;20027;-70
2022/07/16 09:47:01;;;;;;;4.43;2.60;;;32.10;50.80;;;;;;10863826;32;20023;-69
2022/07/16 09:53:14;;;;;;;4.95;1.70;;;32.30;49.50;;;;;;10866115;32;20032;-69
2022/07/16 09:59:17;;;;;;;2.62;2.03;;;32.40;49.80;;;;;;10852571;32;20043;-70
2022/07/16 10:05:22;;;;;;;2.62;2.08;;;32.40;48.90;;;;;;10864792;32;20361;-69
2022/07/16 10:11:24;;;;;;;2.70;1.60;;;32.60;47.90;;;;;;10850891;32;20300;-70
2022/07/16 10:17:37;;;;;;;3.85;2.40;;;32.60;47.60;;;;;;10866180;32;20012;-70
2022/07/16 10:24:00;;;;;;;2.08;1.42;;;32.80;46.30;;;;;;10864050;32;20023;-69
2022/07/16 10:30:14;;;;;;;3.35;2.15;;;32.90;46.10;;;;;;10860724;32;20050;-69
2022/07/16 10:36:18;;;;;;;5.40;3.05;;;33.30;46.30;;;;;;10863674;32;20020;-70
2022/07/16 10:42:22;;;;;;;4.82;2.17;;;33.50;46.90;;;;;;10864907;32;20352;-70
2022/07/16 10:48:26;;;;;;;3.17;1.92;;;33.60;45.50;;;;;;10851364;32;20046;-71
2022/07/16 10:54:35;;;;;;;4.35;1.98;;;33.80;44.60;;;;;;10864308;32;20020;-71
2022/07/16 11:00:38;;;;;;;3.03;1.70;;;34.00;43.60;;;;;;10863148;32;20023;-70
2022/07/16 11:06:47;;;;;;;3.53;2.80;;;34.20;43.50;;;;;;10864139;32;20082;-69
2022/07/16 11:12:49;;;;;;;2.17;1.62;;;34.50;42.90;;;;;;10863829;32;20372;-71
2022/07/16 11:18:51;;;;;;;6.10;2.65;;;34.60;42.60;;;;;;10846422;32;20297;-71
2022/07/16 11:25:01;;;;;;;3.00;2.03;;;34.90;42.10;;;;;;10863525;32;20015;-71
2022/07/16 11:31:06;;;;;;;8.75;2.90;;;35.00;41.80;;;;;;10863191;32;20047;-71
2022/07/16 11:37:26;;;;;;;5.25;1.92;;;35.10;41.00;;;;;;10862049;32;20352;-71
2022/07/16 11:43:29;;;;;;;7.10;2.25;;;35.30;40.50;;;;;;10863016;32;20073;-71
2022/07/16 11:49:34;;;;;;;3.05;2.12;;;35.50;40.80;;;;;;10849697;32;20042;-69
2022/07/16 11:55:45;;;;;;;3.50;2.35;;;35.70;40.00;;;;;;10861519;32;20339;-71
2022/07/16 12:02:01;;;;;;;3.80;1.90;;;35.80;40.90;;;;;;10862040;32;20032;-71
2022/07/16 12:08:04;;;;;;;3.65;2.15;;;36.00;41.10;;;;;;10862261;32;20050;-70
2022/07/16 12:14:06;;;;;;;2.70;1.92;;;36.20;39.70;;;;;;10862261;32;20051;-71
2022/07/16 12:20:14;;;;;;;3.78;1.87;;;36.20;39.10;;;;;;10862104;32;20031;-71
2022/07/16 12:26:44;;;;;;;3.62;2.03;;;36.20;38.40;;;;;;10863168;27;20031;-71
2022/07/16 12:32:50;;;;;;;2.17;1.50;;;36.30;38.10;;;;;;10784016;33;20055;-70
2022/07/16 12:38:55;;;;;;;4.10;2.35;;;36.30;38.30;;;;;;10784017;33;20361;-70
2022/07/16 12:44:57;;;;;;;3.85;2.20;;;36.40;38.30;;;;;;10784300;33;20028;-70
2022/07/16 12:50:59;;;;;;;3.95;1.50;;;36.50;38.30;;;;;;10784162;33;20388;-71
2022/07/16 13:03:47;;;;;;;3.00;1.87;;;36.60;38.00;;;;;;10845580;32;20032;-70
2022/07/16 13:09:53;;;;;;;6.40;3.37;;;36.30;38.90;;;;;;10861699;32;20027;-71
2022/07/16 13:15:56;;;;;;;5.72;2.72;;;36.30;38.20;;;;;;10867169;32;20023;-70
2022/07/16 13:21:58;;;;;;;4.15;2.50;;;36.30;38.70;;;;;;10867035;32;20367;-71
2022/07/16 13:28:13;;;;;;;4.57;2.92;;;36.30;38.70;;;;;;10867181;32;20058;-71
2022/07/16 13:34:16;;;;;;;5.32;1.95;;;36.30;38.30;;;;;;10866592;32;20016;-70
2022/07/16 13:40:18;;;;;;;2.28;1.42;;;36.30;38.30;;;;;;10865136;32;20324;-71
2022/07/16 13:46:20;;;;;;;4.72;2.65;;;36.30;38.30;;;;;;10831562;32;20063;-70
2022/07/16 13:52:23;;;;;;;6.12;2.47;;;36.30;38.20;;;;;;10812852;33;20024;-71
2022/07/16 13:58:26;;;;;;;2.05;1.60;;;36.40;38.30;;;;;;10814663;33;20047;-71
2022/07/16 14:04:28;;;;;;;6.95;2.65;;;36.40;38.20;;;;;;10827164;33;20024;-71
2022/07/16 14:10:30;;;;;;;5.53;2.28;;;36.40;38.20;;;;;;10828626;33;20024;-71
2022/07/16 14:16:34;;;;;;;6.07;2.25;;;36.30;38.10;;;;;;10825697;33;20024;-71
2022/07/16 14:22:37;;;;;;;5.22;1.95;;;36.30;38.20;;;;;;10828046;32;20328;-71
2022/07/16 14:28:39;;;;;;;10.50;3.22;;;36.20;38.00;;;;;;10823888;32;20056;-71
2022/07/16 14:34:41;;;;;;;2.58;1.62;;;36.10;38.20;;;;;;10827953;33;20038;-70
2022/07/16 14:40:43;;;;;;;3.03;2.30;;;36.00;38.40;;;;;;10827502;33;20332;-70
2022/07/16 14:46:45;;;;;;;7.45;2.35;;;35.90;38.80;;;;;;10827618;32;20059;-71
2022/07/16 14:52:48;;;;;;;3.30;2.12;;;35.90;39.20;;;;;;10827126;33;20029;-71
2022/07/16 14:58:50;;;;;;;5.07;1.95;;;35.90;39.00;;;;;;10824330;33;20386;-71
2022/07/16 15:04:53;;;;;;;8.02;2.40;;;35.90;39.10;;;;;;10827286;33;20016;-70
2022/07/16 15:10:55;;;;;;;3.08;1.90;;;35.90;39.00;;;;;;10828067;33;20336;-71
2022/07/16 15:16:57;;;;;;;3.55;1.90;;;35.80;38.90;;;;;;10831507;32;20055;-72
2022/07/16 15:23:00;;;;;;;3.00;2.25;;;35.80;38.60;;;;;;10838793;32;20023;-72
2022/07/16 15:29:02;;;;;;;12.70;3.37;;;35.90;38.50;;;;;;10852236;32;20043;-71
2022/07/16 15:35:06;;;;;;;6.28;2.03;;;35.90;38.50;;;;;;10834093;32;20028;-71
2022/07/16 15:41:14;;;;;;;5.15;2.20;;;36.00;38.60;;;;;;10825293;33;20051;-71
2022/07/16 15:47:16;;;;;;;5.20;2.75;;;36.10;38.50;;;;;;10825289;33;20046;-71
2022/07/16 15:53:18;;;;;;;3.12;2.22;;;36.20;38.30;;;;;;10825551;33;20442;-71
2022/07/16 15:59:21;;;;;;;2.75;1.77;;;36.10;38.30;;;;;;10825611;32;20465;-71
2022/07/16 16:05:23;;;;;;;6.18;2.22;;;36.10;38.40;;;;;;10825062;33;20020;-71
2022/07/16 16:11:25;;;;;;;4.30;2.03;;;36.10;38.20;;;;;;10824771;33;20343;-71
2022/07/16 16:17:27;;;;;;;3.15;1.92;;;36.20;38.00;;;;;;10824486;33;20046;-71
2022/07/16 16:23:30;;;;;;;3.87;1.55;;;36.30;38.10;;;;;;10824658;33;20004;-71
2022/07/16 16:29:33;;;;;;;6.20;2.42;;;36.30;37.90;;;;;;10821159;32;20054;-71
2022/07/16 16:35:35;;;;;;;5.25;2.05;;;36.30;37.60;;;;;;10824544;33;20065;-71
2022/07/16 16:41:37;;;;;;;3.50;2.42;;;36.20;37.60;;;;;;10824302;32;20016;-72
2022/07/16 16:47:39;;;;;;;1.55;1.35;;;36.20;38.10;;;;;;10829946;32;20356;-71
2022/07/16 16:53:42;;;;;;;3.97;2.10;;;36.10;38.10;;;;;;10830778;33;20052;-71
2022/07/16 16:59:57;;;;;;;3.37;1.83;;;36.00;38.00;;;;;;10829544;32;20046;-71
2022/07/16 17:06:01;;;;;;;4.10;2.35;;;36.00;37.90;;;;;;10825767;33;20020;-71
2022/07/16 17:12:04;;;;;;;3.60;1.75;;;35.90;37.80;;;;;;10829876;33;20050;-72
2022/07/16 17:18:09;;;;;;;16.30;2.58;;;35.90;37.60;;;;;;10830699;33;20071;-71
2022/07/16 17:24:11;;;;;;;2.60;1.45;;;35.80;37.60;;;;;;10830491;32;20151;-71
2022/07/16 17:30:14;;;;;;;2.22;1.42;;;35.80;37.40;;;;;;10829006;33;20050;-71
2022/07/16 17:36:16;;;;;;;3.45;2.08;;;35.80;37.60;;;;;;10829851;33;20020;-71
2022/07/16 17:42:18;;;;;;;2.37;1.75;;;35.80;37.60;;;;;;10829006;33;20050;-71
2022/07/16 17:48:20;;;;;;;7.95;2.62;;;35.70;37.80;;;;;;10829797;32;20020;-71
2022/07/16 17:54:22;;;;;;;3.67;2.22;;;35.80;37.90;;;;;;10816502;33;20047;-71
2022/07/16 18:00:24;;;;;;;12.68;2.12;;;35.90;38.50;;;;;;10828613;33;20031;-71
2022/07/16 18:06:26;;;;;;;2.33;1.75;;;36.30;38.30;;;;;;10828635;33;20028;-71
2022/07/16 18:12:28;;;;;;;2.80;1.62;;;36.80;37.90;;;;;;10823427;33;20042;-72
2022/07/16 18:18:30;;;;;;;2.25;1.33;;;36.10;38.70;;;;;;10828380;33;20024;-71
2022/07/16 18:24:32;;;;;;;3.47;1.30;;;35.50;40.00;;;;;;10828180;33;20388;-71
2022/07/16 18:30:34;;;;;;;1.80;1.20;;;35.10;40.70;;;;;;10827741;33;20028;-72
2022/07/16 18:36:35;;;;;;;1.58;1.20;;;34.90;41.20;;;;;;10824282;33;20384;-72
2022/07/16 18:43:02;;;;;;;11.57;1.98;;;34.70;41.90;;;;;;10828075;33;20054;-72
2022/07/16 18:49:04;;;;;;;7.43;1.93;;;34.40;42.50;;;;;;10827560;33;20038;-72
2022/07/16 18:55:06;;;;;;;6.10;1.85;;;34.10;43.30;;;;;;10827168;33;20046;-72
2022/07/16 19:01:09;;;;;;;4.57;2.05;;;33.90;43.70;;;;;;10827045;33;20320;-72
2022/07/16 19:07:12;;;;;;;2.50;1.30;;;33.90;44.10;;;;;;10826041;32;20024;-72
2022/07/16 19:13:14;;;;;;;2.45;1.60;;;33.80;44.30;;;;;;10850892;32;20062;-72
2022/07/16 19:19:16;;;;;;;4.25;1.50;;;33.60;44.70;;;;;;10863300;32;20050;-72
2022/07/16 19:25:18;;;;;;;13.52;2.60;;;33.50;45.40;;;;;;10863458;32;20016;-71
2022/07/16 19:31:21;;;;;;;2.20;1.27;;;33.40;45.50;;;;;;10862932;32;20024;-71
2022/07/16 19:37:23;;;;;;;2.00;1.23;;;33.30;45.70;;;;;;10862876;32;20031;-71
2022/07/16 19:43:25;;;;;;;3.08;1.20;;;33.20;46.00;;;;;;10863064;32;20050;-71
2022/07/16 19:49:27;;;;;;;2.33;1.42;;;33.10;46.20;;;;;;10862859;32;20039;-71
2022/07/16 20:02:03;;;;;;;3.72;1.58;;;32.90;46.80;;;;;;10862647;32;20019;-71
2022/07/16 20:08:05;;;;;;;3.45;1.15;;;32.90;47.20;;;;;;10862242;32;20416;-71
2022/07/16 20:14:07;;;;;;;2.80;1.60;;;32.80;47.40;;;;;;10848850;32;20388;-71
2022/07/16 20:20:10;;;;;;;2.97;1.70;;;32.60;48.20;;;;;;10861648;32;20051;-71
2022/07/16 20:26:26;;;;;;;3.94;2.07;;;32.60;48.70;;;;;;10808814;27;12760634;-71
2022/07/16 20:32:28;;;;;;;2.72;1.73;;;32.50;49.30;;;;;;10821729;33;20379;-71
2022/07/16 20:38:30;;;;;;;4.18;1.52;;;32.40;49.60;;;;;;10821718;33;20054;-71
2022/07/16 20:44:32;;;;;;;2.70;1.33;;;32.40;50.00;;;;;;10821503;33;20308;-71
2022/07/16 20:50:34;;;;;;;8.93;2.20;;;32.30;50.10;;;;;;10808492;33;20396;-71
2022/07/16 20:56:36;;;;;;;2.60;1.62;;;32.10;50.80;;;;;;10823900;33;20043;-71
2022/07/16 21:02:41;;;;;;;2.25;1.58;;;32.00;51.60;;;;;;10824183;33;20012;-71
2022/07/16 21:08:43;;;;;;;4.97;2.00;;;32.00;51.90;;;;;;10824029;33;20028;-71
2022/07/16 21:14:45;;;;;;;2.17;1.70;;;31.90;51.90;;;;;;10823881;33;20025;-71
2022/07/16 21:20:48;;;;;;;2.22;1.58;;;31.80;52.00;;;;;;10820783;33;20020;-71
2022/07/16 21:26:50;;;;;;;1.65;1.40;;;31.70;52.30;;;;;;10823447;32;20414;-71
2022/07/16 21:32:53;;;;;;;2.65;1.55;;;31.60;52.50;;;;;;10822538;32;20035;-71
2022/07/16 21:38:55;;;;;;;2.03;1.40;;;31.40;52.60;;;;;;10826034;33;20054;-71
2022/07/16 21:44:57;;;;;;;2.97;1.33;;;31.40;52.90;;;;;;10829672;33;20297;-71
2022/07/16 21:51:02;;;;;;;4.07;1.90;;;31.30;53.10;;;;;;10802601;33;20029;-71
2022/07/16 21:57:04;;;;;;;2.97;1.87;;;31.30;53.50;;;;;;10792316;33;20043;-71
2022/07/16 22:03:13;;;;;;;2.92;2.10;;;31.20;53.70;;;;;;10788158;33;20423;-71
2022/07/16 22:09:15;;;;;;;2.72;1.87;;;31.10;54.30;;;;;;10787878;33;20314;-71
2022/07/16 22:15:18;;;;;;;5.00;2.53;;;31.10;54.20;;;;;;10787488;33;20024;-71
2022/07/16 22:21:20;;;;;;;6.62;2.45;;;31.00;54.60;;;;;;10791700;33;20032;-71
2022/07/16 22:27:22;;;;;;;3.65;1.95;;;30.90;55.30;;;;;;10791558;33;20021;-71
2022/07/16 22:33:24;;;;;;;3.40;1.80;;;30.90;55.20;;;;;;10787266;33;20335;-71
2022/07/16 22:39:26;;;;;;;3.83;2.00;;;30.90;55.40;;;;;;10791263;33;20396;-71
2022/07/16 22:45:29;;;;;;;2.42;1.65;;;30.80;55.30;;;;;;10791013;33;20012;-71
2022/07/16 22:51:31;;;;;;;3.45;2.30;;;30.80;55.20;;;;;;10786708;33;20505;-71
2022/07/16 22:57:34;;;;;;;4.00;1.90;;;30.80;55.40;;;;;;10790696;33;20340;-71
2022/07/16 23:03:38;;;;;;;1.98;1.35;;;30.80;55.20;;;;;;10786713;33;20021;-71
2022/07/16 23:09:40;;;;;;;3.78;2.03;;;30.80;55.20;;;;;;10790298;33;20324;-71
2022/07/16 23:15:42;;;;;;;2.75;1.80;;;30.80;55.20;;;;;;10790114;33;20051;-71
2022/07/16 23:21:44;;;;;;;2.22;1.75;;;30.80;55.20;;;;;;10790045;33;20388;-71
2022/07/16 23:27:47;;;;;;;2.85;1.80;;;30.70;55.30;;;;;;10789942;33;20320;-71
2022/07/16 23:33:50;;;;;;;5.70;3.12;;;30.80;55.50;;;;;;10776588;33;20347;-71
2022/07/16 23:39:52;;;;;;;3.45;2.47;;;30.80;55.40;;;;;;10789372;33;20086;-71
2022/07/16 23:45:57;;;;;;;3.60;2.37;;;30.60;55.90;;;;;;10789348;33;20020;-71
2022/07/16 23:52:00;;;;;;;3.15;1.80;;;30.50;56.00;;;;;;10775937;33;20024;-71
2022/07/16 23:58:02;;;;;;;7.82;2.72;;;30.50;56.60;;;;;;10788379;33;20044;-71
